Howardsville, VA (24562)

3:31 AM EDT on August 23, 2014 (GMT -0400)
Rockfish Depot | Change Station
CLOSE
Current Station
Personal Weather Station
Location: Rockfish, VA
Elevation: 482 ft
Nearby Weather Stations
Active Advisory: Flash Flood Warning

Elev 482 ft 37.80 °N, 78.75 °W | Updated 9 minutes ago

Rain
Rain Mist
72.1 °F
Feels Like 72.1 °F
N
0.0
Wind Variable Wind from South
Gusts 0.0 mph

Today
High -- | Low -- °F
--% Chance of Precip.
Yesterday
High -- | Low -- °F
Precip. -- in
6:36 AM 7:56 PM
Waning Crescent, 5% visible
Pressure 29.98 in
Visibility 1.8 miles
Clouds Few 500 ft
Overcast 1200 ft
Dew Point 71 °F
Humidity 93%
Rainfall 0.00 in
Snow Depth Not available.
UV 0.0 out of 12
Pollen 8.50 out of 12
Air Quality Not available.
Flu Activity Not available.
SPECI KCHO 230726Z AUTO 00000KT 1 3/4SM RA BR FEW005 OVC012 22/21 A2998 RMK AO2 RAE00B18 P0005 T02170211

More Conditions Fewer Conditions

Pressure 29.98 in
Visibility 1.8 miles
Clouds Few 500 ft
Overcast 1200 ft
Dew Point 71 °F
Humidity 93%
Rainfall 0.00 in
Snow Depth Not available.
UV 0.0 out of 12
Pollen 8.50 out of 12
Air Quality Not available.
Flu Activity Not available.
SPECI KCHO 230726Z AUTO 00000KT 1 3/4SM RA BR FEW005 OVC012 22/21 A2998 RMK AO2 RAE00B18 P0005 T02170211

More Conditions Fewer Conditions

10-Day Weather Forecast

Almanac

Astronomy

Aug. 23, 2014 Rise Set
Actual Time 6:36 AM EDT 7:56 PM EDT
Civil Twilight 6:09 AM EDT 8:23 PM EDT
Nautical Twilight 5:36 AM EDT 8:56 PM EDT
Astronomical Twilight 5:02 AM EDT 9:30 PM EDT
Moon 4:52 AM EDT 6:39 PM EDT
Length of Visible Light 14h 14m
Length of Day
13h 19m
Tomorrow will be 2m 15s shorter.
Waning Crescent, 5% of the Moon is Illuminated
Today
Waning Crescent
Aug 25
New
Sep 2
First Quarter
Sep 8
Full
Sep 15
Last Quarter

Today's Extremes

State Highs State Lows

Community

WunderPhotos

Upload Photos

1,746,377 photos uploaded!

WunderBlogs® & News

By Dr. Jeff Masters
Director of Meteorology, Weather Underground
By Kari Strenfel
Meteorologist, Weather Underground
By Christopher C. Burt
Weather Historian, Weather Underground
August 23, 2014
August 23, 2014
August 22, 2014

Nearby

Snow Depth

Station Depth Elevation
No new snow has been reported.

Earthquake Activity

City Distance Mag. Time & Date
No recent earthquake activity has been reported nearby.
Minimum magnitude displayed is 2.5.

Coastal Water Temperatures

Place Temperature
No Stations Reporting

Nearby Weather Stations